sensor_id;sensor_type;location;lat;lon;timestamp;P1;durP1;ratioP1;P2;durP2;ratioP2
18302;SDS011;9277;37.980;23.748;2022-09-02T00:00:45;13.68;;;6.93;;
18302;SDS011;9277;37.980;23.748;2022-09-02T00:03:12;12.82;;;7.47;;
18302;SDS011;9277;37.980;23.748;2022-09-02T00:05:40;16.50;;;7.70;;
18302;SDS011;9277;37.980;23.748;2022-09-02T00:08:08;11.73;;;7.22;;
18302;SDS011;9277;37.980;23.748;2022-09-02T00:10:38;16.33;;;7.68;;
18302;SDS011;9277;37.980;23.748;2022-09-02T00:13:06;14.35;;;8.10;;
18302;SDS011;9277;37.980;23.748;2022-09-02T00:15:35;12.15;;;7.30;;
18302;SDS011;9277;37.980;23.748;2022-09-02T00:18:06;13.00;;;7.72;;
18302;SDS011;9277;37.980;23.748;2022-09-02T00:20:38;13.88;;;7.70;;
18302;SDS011;9277;37.980;23.748;2022-09-02T00:23:06;15.63;;;8.07;;
18302;SDS011;9277;37.980;23.748;2022-09-02T00:25:39;12.25;;;7.88;;
18302;SDS011;9277;37.980;23.748;2022-09-02T00:28:09;15.93;;;8.80;;
18302;SDS011;9277;37.980;23.748;2022-09-02T00:30:43;19.05;;;8.20;;
18302;SDS011;9277;37.980;23.748;2022-09-02T00:33:11;14.85;;;8.18;;
18302;SDS011;9277;37.980;23.748;2022-09-02T00:35:40;15.48;;;8.48;;
18302;SDS011;9277;37.980;23.748;2022-09-02T00:38:08;12.23;;;7.90;;
18302;SDS011;9277;37.980;23.748;2022-09-02T00:40:37;13.57;;;7.30;;
18302;SDS011;9277;37.980;23.748;2022-09-02T00:43:06;16.55;;;8.25;;
18302;SDS011;9277;37.980;23.748;2022-09-02T00:45:33;14.45;;;7.65;;
18302;SDS011;9277;37.980;23.748;2022-09-02T00:48:02;14.50;;;7.40;;
18302;SDS011;9277;37.980;23.748;2022-09-02T00:50:32;18.23;;;7.82;;
18302;SDS011;9277;37.980;23.748;2022-09-02T00:53:35;16.38;;;8.55;;
18302;SDS011;9277;37.980;23.748;2022-09-02T00:56:03;11.52;;;7.88;;
18302;SDS011;9277;37.980;23.748;2022-09-02T00:58:32;13.85;;;7.18;;
18302;SDS011;9277;37.980;23.748;2022-09-02T01:01:00;11.43;;;7.43;;
18302;SDS011;9277;37.980;23.748;2022-09-02T01:03:28;15.55;;;7.72;;
18302;SDS011;9277;37.980;23.748;2022-09-02T01:05:56;13.93;;;7.32;;
18302;SDS011;9277;37.980;23.748;2022-09-02T01:08:25;13.23;;;7.13;;
18302;SDS011;9277;37.980;23.748;2022-09-02T01:10:54;15.90;;;7.72;;
18302;SDS011;9277;37.980;23.748;2022-09-02T01:13:22;13.13;;;7.43;;
18302;SDS011;9277;37.980;23.748;2022-09-02T01:15:52;16.20;;;8.27;;
18302;SDS011;9277;37.980;23.748;2022-09-02T01:18:20;9.93;;;7.00;;
18302;SDS011;9277;37.980;23.748;2022-09-02T01:20:48;11.35;;;7.25;;
18302;SDS011;9277;37.980;23.748;2022-09-02T01:23:16;17.30;;;7.55;;
18302;SDS011;9277;37.980;23.748;2022-09-02T01:25:43;13.02;;;6.82;;
18302;SDS011;9277;37.980;23.748;2022-09-02T01:28:12;11.63;;;7.28;;
18302;SDS011;9277;37.980;23.748;2022-09-02T01:30:40;14.52;;;7.65;;
18302;SDS011;9277;37.980;23.748;2022-09-02T01:33:08;10.63;;;7.55;;
18302;SDS011;9277;37.980;23.748;2022-09-02T01:35:35;12.38;;;7.78;;
18302;SDS011;9277;37.980;23.748;2022-09-02T01:38:02;13.20;;;7.57;;
18302;SDS011;9277;37.980;23.748;2022-09-02T01:40:31;12.93;;;7.28;;
18302;SDS011;9277;37.980;23.748;2022-09-02T01:42:59;14.13;;;7.85;;
18302;SDS011;9277;37.980;23.748;2022-09-02T01:45:26;15.73;;;7.32;;
18302;SDS011;9277;37.980;23.748;2022-09-02T01:47:54;13.32;;;7.45;;
18302;SDS011;9277;37.980;23.748;2022-09-02T01:50:21;12.75;;;7.95;;
18302;SDS011;9277;37.980;23.748;2022-09-02T01:52:48;14.70;;;7.93;;
18302;SDS011;9277;37.980;23.748;2022-09-02T01:55:15;15.77;;;7.97;;
18302;SDS011;9277;37.980;23.748;2022-09-02T01:57:43;10.82;;;7.68;;
18302;SDS011;9277;37.980;23.748;2022-09-02T02:00:10;11.18;;;7.70;;
18302;SDS011;9277;37.980;23.748;2022-09-02T02:02:38;12.80;;;7.63;;
18302;SDS011;9277;37.980;23.748;2022-09-02T02:05:05;16.00;;;8.02;;
18302;SDS011;9277;37.980;23.748;2022-09-02T02:07:32;14.90;;;8.30;;
18302;SDS011;9277;37.980;23.748;2022-09-02T02:09:58;13.50;;;7.72;;
18302;SDS011;9277;37.980;23.748;2022-09-02T02:12:25;14.10;;;8.32;;
18302;SDS011;9277;37.980;23.748;2022-09-02T02:14:54;11.82;;;6.90;;
18302;SDS011;9277;37.980;23.748;2022-09-02T02:17:21;16.88;;;8.27;;
18302;SDS011;9277;37.980;23.748;2022-09-02T02:19:48;15.98;;;8.43;;
18302;SDS011;9277;37.980;23.748;2022-09-02T02:22:14;11.20;;;7.53;;
18302;SDS011;9277;37.980;23.748;2022-09-02T02:24:41;10.85;;;7.53;;
18302;SDS011;9277;37.980;23.748;2022-09-02T02:27:10;14.85;;;8.18;;
18302;SDS011;9277;37.980;23.748;2022-09-02T02:29:36;18.33;;;7.72;;
18302;SDS011;9277;37.980;23.748;2022-09-02T02:32:05;16.92;;;8.20;;
18302;SDS011;9277;37.980;23.748;2022-09-02T02:34:32;16.27;;;7.90;;
18302;SDS011;9277;37.980;23.748;2022-09-02T02:36:59;12.48;;;8.02;;
18302;SDS011;9277;37.980;23.748;2022-09-02T02:39:26;14.38;;;8.30;;
18302;SDS011;9277;37.980;23.748;2022-09-02T02:41:52;15.27;;;8.20;;
18302;SDS011;9277;37.980;23.748;2022-09-02T02:44:19;12.30;;;7.45;;
18302;SDS011;9277;37.980;23.748;2022-09-02T02:46:46;19.27;;;7.20;;
18302;SDS011;9277;37.980;23.748;2022-09-02T02:49:14;13.88;;;8.20;;
18302;SDS011;9277;37.980;23.748;2022-09-02T02:51:41;12.23;;;7.90;;
18302;SDS011;9277;37.980;23.748;2022-09-02T02:54:08;17.33;;;8.55;;
18302;SDS011;9277;37.980;23.748;2022-09-02T02:56:35;13.48;;;7.45;;
18302;SDS011;9277;37.980;23.748;2022-09-02T02:59:02;16.77;;;7.68;;
18302;SDS011;9277;37.980;23.748;2022-09-02T03:01:29;13.00;;;8.23;;
18302;SDS011;9277;37.980;23.748;2022-09-02T03:03:56;12.05;;;7.22;;
18302;SDS011;9277;37.980;23.748;2022-09-02T03:06:24;15.98;;;7.88;;
18302;SDS011;9277;37.980;23.748;2022-09-02T03:08:51;14.40;;;7.47;;
18302;SDS011;9277;37.980;23.748;2022-09-02T03:11:19;13.32;;;7.68;;
18302;SDS011;9277;37.980;23.748;2022-09-02T03:13:46;14.52;;;8.43;;
18302;SDS011;9277;37.980;23.748;2022-09-02T03:16:13;14.40;;;8.70;;
18302;SDS011;9277;37.980;23.748;2022-09-02T03:18:40;18.30;;;9.02;;
18302;SDS011;9277;37.980;23.748;2022-09-02T03:21:07;13.57;;;8.35;;
18302;SDS011;9277;37.980;23.748;2022-09-02T03:23:36;18.55;;;8.90;;
18302;SDS011;9277;37.980;23.748;2022-09-02T03:26:07;13.68;;;8.00;;
18302;SDS011;9277;37.980;23.748;2022-09-02T03:28:35;16.15;;;8.07;;
18302;SDS011;9277;37.980;23.748;2022-09-02T03:31:02;17.92;;;9.10;;
18302;SDS011;9277;37.980;23.748;2022-09-02T03:33:29;14.30;;;8.20;;
18302;SDS011;9277;37.980;23.748;2022-09-02T03:35:56;14.38;;;8.00;;
18302;SDS011;9277;37.980;23.748;2022-09-02T03:38:23;11.80;;;8.10;;
18302;SDS011;9277;37.980;23.748;2022-09-02T03:40:51;14.45;;;8.50;;
18302;SDS011;9277;37.980;23.748;2022-09-02T03:43:18;18.38;;;9.05;;
18302;SDS011;9277;37.980;23.748;2022-09-02T03:45:45;18.80;;;8.38;;
18302;SDS011;9277;37.980;23.748;2022-09-02T03:48:12;16.83;;;8.82;;
18302;SDS011;9277;37.980;23.748;2022-09-02T03:50:40;19.38;;;8.43;;
18302;SDS011;9277;37.980;23.748;2022-09-02T03:53:07;14.55;;;8.20;;
18302;SDS011;9277;37.980;23.748;2022-09-02T03:55:35;15.30;;;8.57;;
18302;SDS011;9277;37.980;23.748;2022-09-02T03:58:03;14.30;;;7.97;;
18302;SDS011;9277;37.980;23.748;2022-09-02T04:00:30;15.07;;;8.50;;
18302;SDS011;9277;37.980;23.748;2022-09-02T04:02:57;14.23;;;8.48;;
18302;SDS011;9277;37.980;23.748;2022-09-02T04:05:25;15.82;;;8.48;;
18302;SDS011;9277;37.980;23.748;2022-09-02T04:07:52;16.58;;;7.82;;
18302;SDS011;9277;37.980;23.748;2022-09-02T04:10:19;16.70;;;8.38;;
18302;SDS011;9277;37.980;23.748;2022-09-02T04:12:47;18.50;;;9.30;;
18302;SDS011;9277;37.980;23.748;2022-09-02T04:15:15;14.65;;;8.95;;
18302;SDS011;9277;37.980;23.748;2022-09-02T04:17:43;14.45;;;8.15;;
18302;SDS011;9277;37.980;23.748;2022-09-02T04:20:11;15.35;;;8.15;;
18302;SDS011;9277;37.980;23.748;2022-09-02T04:22:38;14.05;;;8.50;;
18302;SDS011;9277;37.980;23.748;2022-09-02T04:25:06;28.00;;;9.65;;
18302;SDS011;9277;37.980;23.748;2022-09-02T04:27:33;18.50;;;8.93;;
18302;SDS011;9277;37.980;23.748;2022-09-02T04:29:59;19.60;;;9.00;;
18302;SDS011;9277;37.980;23.748;2022-09-02T04:32:28;17.45;;;8.80;;
18302;SDS011;9277;37.980;23.748;2022-09-02T04:34:55;17.13;;;8.13;;
18302;SDS011;9277;37.980;23.748;2022-09-02T04:37:21;15.55;;;8.77;;
18302;SDS011;9277;37.980;23.748;2022-09-02T04:39:48;15.00;;;7.97;;
18302;SDS011;9277;37.980;23.748;2022-09-02T04:42:16;18.45;;;8.38;;
18302;SDS011;9277;37.980;23.748;2022-09-02T04:44:43;16.15;;;7.80;;
18302;SDS011;9277;37.980;23.748;2022-09-02T04:47:11;23.13;;;8.80;;
18302;SDS011;9277;37.980;23.748;2022-09-02T04:49:39;15.38;;;8.32;;
18302;SDS011;9277;37.980;23.748;2022-09-02T04:52:07;11.63;;;7.93;;
18302;SDS011;9277;37.980;23.748;2022-09-02T04:54:34;16.35;;;8.90;;
18302;SDS011;9277;37.980;23.748;2022-09-02T04:57:01;16.25;;;8.85;;
18302;SDS011;9277;37.980;23.748;2022-09-02T04:59:28;17.42;;;8.60;;
18302;SDS011;9277;37.980;23.748;2022-09-02T05:01:55;19.38;;;8.60;;
18302;SDS011;9277;37.980;23.748;2022-09-02T05:04:21;16.67;;;8.45;;
18302;SDS011;9277;37.980;23.748;2022-09-02T05:06:49;18.60;;;9.57;;
18302;SDS011;9277;37.980;23.748;2022-09-02T05:09:18;17.98;;;8.05;;
18302;SDS011;9277;37.980;23.748;2022-09-02T05:11:45;26.55;;;9.02;;
18302;SDS011;9277;37.980;23.748;2022-09-02T05:14:12;22.98;;;9.00;;
18302;SDS011;9277;37.980;23.748;2022-09-02T05:16:40;16.98;;;7.70;;
18302;SDS011;9277;37.980;23.748;2022-09-02T05:19:07;14.85;;;7.82;;
18302;SDS011;9277;37.980;23.748;2022-09-02T05:21:37;19.65;;;7.32;;
18302;SDS011;9277;37.980;23.748;2022-09-02T05:24:06;19.17;;;8.10;;
18302;SDS011;9277;37.980;23.748;2022-09-02T05:26:33;12.57;;;7.63;;
18302;SDS011;9277;37.980;23.748;2022-09-02T05:29:00;19.55;;;8.98;;
18302;SDS011;9277;37.980;23.748;2022-09-02T05:31:27;32.08;;;9.93;;
18302;SDS011;9277;37.980;23.748;2022-09-02T05:33:54;23.65;;;9.25;;
18302;SDS011;9277;37.980;23.748;2022-09-02T05:36:21;45.05;;;12.20;;
18302;SDS011;9277;37.980;23.748;2022-09-02T05:38:48;40.03;;;10.57;;
18302;SDS011;9277;37.980;23.748;2022-09-02T05:41:18;25.10;;;10.05;;
18302;SDS011;9277;37.980;23.748;2022-09-02T05:43:47;22.48;;;9.85;;
18302;SDS011;9277;37.980;23.748;2022-09-02T05:46:15;16.45;;;10.25;;
18302;SDS011;9277;37.980;23.748;2022-09-02T05:48:43;18.33;;;9.00;;
18302;SDS011;9277;37.980;23.748;2022-09-02T05:51:28;19.30;;;10.33;;
18302;SDS011;9277;37.980;23.748;2022-09-02T05:53:56;20.10;;;11.35;;
18302;SDS011;9277;37.980;23.748;2022-09-02T05:56:24;22.40;;;11.63;;
18302;SDS011;9277;37.980;23.748;2022-09-02T05:58:53;19.40;;;9.23;;
18302;SDS011;9277;37.980;23.748;2022-09-02T06:01:20;17.33;;;9.38;;
18302;SDS011;9277;37.980;23.748;2022-09-02T06:03:47;17.08;;;10.20;;
18302;SDS011;9277;37.980;23.748;2022-09-02T06:06:14;26.23;;;10.27;;
18302;SDS011;9277;37.980;23.748;2022-09-02T06:08:42;18.95;;;9.45;;
18302;SDS011;9277;37.980;23.748;2022-09-02T06:11:10;14.63;;;8.82;;
18302;SDS011;9277;37.980;23.748;2022-09-02T06:13:39;22.65;;;10.63;;
18302;SDS011;9277;37.980;23.748;2022-09-02T06:16:06;19.60;;;9.60;;
18302;SDS011;9277;37.980;23.748;2022-09-02T06:18:34;24.70;;;11.32;;
18302;SDS011;9277;37.980;23.748;2022-09-02T06:21:02;16.35;;;9.15;;
18302;SDS011;9277;37.980;23.748;2022-09-02T06:23:29;19.33;;;10.52;;
18302;SDS011;9277;37.980;23.748;2022-09-02T06:25:56;23.77;;;10.75;;
18302;SDS011;9277;37.980;23.748;2022-09-02T06:28:22;23.38;;;9.88;;
18302;SDS011;9277;37.980;23.748;2022-09-02T06:30:51;16.52;;;9.38;;
18302;SDS011;9277;37.980;23.748;2022-09-02T06:33:17;17.33;;;9.23;;
18302;SDS011;9277;37.980;23.748;2022-09-02T06:35:45;18.92;;;10.00;;
18302;SDS011;9277;37.980;23.748;2022-09-02T06:38:12;20.52;;;11.05;;
18302;SDS011;9277;37.980;23.748;2022-09-02T06:40:45;15.63;;;8.82;;
18302;SDS011;9277;37.980;23.748;2022-09-02T06:43:11;19.73;;;10.40;;
18302;SDS011;9277;37.980;23.748;2022-09-02T06:45:38;20.83;;;11.52;;
18302;SDS011;9277;37.980;23.748;2022-09-02T06:48:07;16.42;;;9.35;;
18302;SDS011;9277;37.980;23.748;2022-09-02T06:50:36;20.35;;;8.73;;
18302;SDS011;9277;37.980;23.748;2022-09-02T06:53:03;17.25;;;9.27;;
18302;SDS011;9277;37.980;23.748;2022-09-02T06:55:33;15.23;;;8.95;;
18302;SDS011;9277;37.980;23.748;2022-09-02T06:58:00;14.57;;;8.25;;
18302;SDS011;9277;37.980;23.748;2022-09-02T07:00:27;16.67;;;9.32;;
18302;SDS011;9277;37.980;23.748;2022-09-02T07:02:55;15.95;;;7.95;;
18302;SDS011;9277;37.980;23.748;2022-09-02T07:05:37;19.77;;;9.00;;
18302;SDS011;9277;37.980;23.748;2022-09-02T07:08:04;16.75;;;8.13;;
18302;SDS011;9277;37.980;23.748;2022-09-02T07:10:31;13.80;;;8.32;;
18302;SDS011;9277;37.980;23.748;2022-09-02T07:12:57;13.70;;;8.07;;
18302;SDS011;9277;37.980;23.748;2022-09-02T07:15:24;12.43;;;7.90;;
18302;SDS011;9277;37.980;23.748;2022-09-02T07:17:53;17.67;;;8.98;;
18302;SDS011;9277;37.980;23.748;2022-09-02T07:20:20;14.82;;;8.82;;
18302;SDS011;9277;37.980;23.748;2022-09-02T07:22:48;20.85;;;8.80;;
18302;SDS011;9277;37.980;23.748;2022-09-02T07:25:15;16.65;;;9.45;;
18302;SDS011;9277;37.980;23.748;2022-09-02T07:27:42;19.63;;;9.13;;
18302;SDS011;9277;37.980;23.748;2022-09-02T07:30:09;19.50;;;9.60;;
18302;SDS011;9277;37.980;23.748;2022-09-02T07:32:36;16.40;;;9.00;;
18302;SDS011;9277;37.980;23.748;2022-09-02T07:35:04;20.25;;;8.98;;
18302;SDS011;9277;37.980;23.748;2022-09-02T07:37:31;17.30;;;9.10;;
18302;SDS011;9277;37.980;23.748;2022-09-02T07:40:00;18.50;;;8.40;;
18302;SDS011;9277;37.980;23.748;2022-09-02T07:42:27;14.18;;;8.68;;
18302;SDS011;9277;37.980;23.748;2022-09-02T07:44:54;12.00;;;8.13;;
18302;SDS011;9277;37.980;23.748;2022-09-02T07:47:21;10.40;;;7.20;;
18302;SDS011;9277;37.980;23.748;2022-09-02T07:49:48;15.27;;;9.00;;
18302;SDS011;9277;37.980;23.748;2022-09-02T07:52:15;16.67;;;8.13;;
18302;SDS011;9277;37.980;23.748;2022-09-02T07:54:42;15.07;;;7.30;;
18302;SDS011;9277;37.980;23.748;2022-09-02T07:57:10;14.05;;;7.68;;
18302;SDS011;9277;37.980;23.748;2022-09-02T07:59:37;13.15;;;7.47;;
18302;SDS011;9277;37.980;23.748;2022-09-02T08:02:04;11.88;;;7.25;;
18302;SDS011;9277;37.980;23.748;2022-09-02T08:04:32;11.85;;;7.70;;
18302;SDS011;9277;37.980;23.748;2022-09-02T08:06:58;11.00;;;7.57;;
18302;SDS011;9277;37.980;23.748;2022-09-02T08:09:26;11.65;;;7.35;;
18302;SDS011;9277;37.980;23.748;2022-09-02T08:11:52;12.65;;;7.68;;
18302;SDS011;9277;37.980;23.748;2022-09-02T08:14:21;13.27;;;7.05;;
18302;SDS011;9277;37.980;23.748;2022-09-02T08:16:50;13.05;;;6.88;;
18302;SDS011;9277;37.980;23.748;2022-09-02T08:19:17;15.10;;;7.55;;
18302;SDS011;9277;37.980;23.748;2022-09-02T08:21:44;13.80;;;7.90;;
18302;SDS011;9277;37.980;23.748;2022-09-02T08:24:10;12.73;;;7.32;;
18302;SDS011;9277;37.980;23.748;2022-09-02T08:26:37;13.85;;;7.63;;
18302;SDS011;9277;37.980;23.748;2022-09-02T08:29:05;12.27;;;6.35;;
18302;SDS011;9277;37.980;23.748;2022-09-02T08:31:33;13.80;;;7.10;;
18302;SDS011;9277;37.980;23.748;2022-09-02T08:34:01;13.25;;;7.13;;
18302;SDS011;9277;37.980;23.748;2022-09-02T08:36:28;11.52;;;6.65;;
18302;SDS011;9277;37.980;23.748;2022-09-02T08:38:56;13.75;;;7.18;;
18302;SDS011;9277;37.980;23.748;2022-09-02T08:41:24;9.18;;;6.03;;
18302;SDS011;9277;37.980;23.748;2022-09-02T08:43:54;12.52;;;6.30;;
18302;SDS011;9277;37.980;23.748;2022-09-02T08:46:22;11.40;;;6.10;;
18302;SDS011;9277;37.980;23.748;2022-09-02T08:48:52;13.13;;;6.30;;
18302;SDS011;9277;37.980;23.748;2022-09-02T08:51:22;10.35;;;6.70;;
18302;SDS011;9277;37.980;23.748;2022-09-02T08:53:55;12.63;;;6.85;;
18302;SDS011;9277;37.980;23.748;2022-09-02T08:56:23;11.45;;;7.00;;
18302;SDS011;9277;37.980;23.748;2022-09-02T08:58:50;13.25;;;6.15;;
18302;SDS011;9277;37.980;23.748;2022-09-02T09:01:21;9.18;;;6.18;;
18302;SDS011;9277;37.980;23.748;2022-09-02T09:04:00;16.08;;;7.40;;
18302;SDS011;9277;37.980;23.748;2022-09-02T09:06:30;11.00;;;7.22;;
18302;SDS011;9277;37.980;23.748;2022-09-02T09:09:02;11.35;;;7.10;;
18302;SDS011;9277;37.980;23.748;2022-09-02T09:11:35;12.45;;;7.20;;
18302;SDS011;9277;37.980;23.748;2022-09-02T09:14:20;10.80;;;6.47;;
18302;SDS011;9277;37.980;23.748;2022-09-02T09:16:53;15.50;;;6.35;;
18302;SDS011;9277;37.980;23.748;2022-09-02T09:19:24;8.73;;;6.32;;
18302;SDS011;9277;37.980;23.748;2022-09-02T09:21:55;9.02;;;6.15;;
18302;SDS011;9277;37.980;23.748;2022-09-02T09:24:29;11.25;;;6.93;;
18302;SDS011;9277;37.980;23.748;2022-09-02T09:26:58;11.65;;;7.25;;
18302;SDS011;9277;37.980;23.748;2022-09-02T09:29:25;18.00;;;8.00;;
18302;SDS011;9277;37.980;23.748;2022-09-02T09:31:53;11.43;;;6.28;;
18302;SDS011;9277;37.980;23.748;2022-09-02T09:34:21;7.40;;;5.38;;
18302;SDS011;9277;37.980;23.748;2022-09-02T09:36:51;13.80;;;6.25;;
18302;SDS011;9277;37.980;23.748;2022-09-02T09:39:21;9.02;;;6.05;;
18302;SDS011;9277;37.980;23.748;2022-09-02T09:41:48;9.63;;;6.22;;
18302;SDS011;9277;37.980;23.748;2022-09-02T09:44:35;10.32;;;5.90;;
18302;SDS011;9277;37.980;23.748;2022-09-02T09:47:22;9.20;;;5.78;;
18302;SDS011;9277;37.980;23.748;2022-09-02T09:49:51;12.40;;;5.35;;
18302;SDS011;9277;37.980;23.748;2022-09-02T09:52:26;10.57;;;5.47;;
18302;SDS011;9277;37.980;23.748;2022-09-02T09:57:48;13.13;;;6.38;;
18302;SDS011;9277;37.980;23.748;2022-09-02T10:00:18;6.75;;;5.00;;
18302;SDS011;9277;37.980;23.748;2022-09-02T10:02:46;14.20;;;5.75;;
18302;SDS011;9277;37.980;23.748;2022-09-02T10:05:18;11.20;;;5.55;;
18302;SDS011;9277;37.980;23.748;2022-09-02T10:07:53;12.27;;;5.88;;
18302;SDS011;9277;37.980;23.748;2022-09-02T10:10:25;13.82;;;5.90;;
18302;SDS011;9277;37.980;23.748;2022-09-02T10:12:53;7.55;;;5.53;;
18302;SDS011;9277;37.980;23.748;2022-09-02T10:15:22;6.95;;;5.18;;
18302;SDS011;9277;37.980;23.748;2022-09-02T10:17:51;11.18;;;5.60;;
18302;SDS011;9277;37.980;23.748;2022-09-02T10:20:21;11.35;;;5.55;;
18302;SDS011;9277;37.980;23.748;2022-09-02T10:23:07;10.63;;;5.53;;
18302;SDS011;9277;37.980;23.748;2022-09-02T10:25:38;8.50;;;5.47;;
18302;SDS011;9277;37.980;23.748;2022-09-02T10:28:14;7.28;;;5.50;;
18302;SDS011;9277;37.980;23.748;2022-09-02T10:30:45;10.13;;;5.35;;
18302;SDS011;9277;37.980;23.748;2022-09-02T10:33:20;9.98;;;5.90;;
18302;SDS011;9277;37.980;23.748;2022-09-02T10:35:52;8.82;;;5.93;;
18302;SDS011;9277;37.980;23.748;2022-09-02T10:38:26;8.77;;;5.20;;
18302;SDS011;9277;37.980;23.748;2022-09-02T10:40:57;8.73;;;5.20;;
18302;SDS011;9277;37.980;23.748;2022-09-02T10:43:31;9.38;;;4.15;;
18302;SDS011;9277;37.980;23.748;2022-09-02T10:46:07;8.35;;;3.83;;
18302;SDS011;9277;37.980;23.748;2022-09-02T10:48:38;12.45;;;4.63;;
18302;SDS011;9277;37.980;23.748;2022-09-02T10:51:09;7.15;;;4.32;;
18302;SDS011;9277;37.980;23.748;2022-09-02T10:53:45;10.30;;;4.97;;
18302;SDS011;9277;37.980;23.748;2022-09-02T10:56:13;7.72;;;5.50;;
18302;SDS011;9277;37.980;23.748;2022-09-02T10:58:43;7.53;;;4.53;;
18302;SDS011;9277;37.980;23.748;2022-09-02T11:01:12;4.80;;;4.25;;
18302;SDS011;9277;37.980;23.748;2022-09-02T11:03:42;6.05;;;4.63;;
18302;SDS011;9277;37.980;23.748;2022-09-02T11:06:11;9.15;;;4.70;;
18302;SDS011;9277;37.980;23.748;2022-09-02T11:08:41;6.90;;;4.72;;
18302;SDS011;9277;37.980;23.748;2022-09-02T11:11:11;11.98;;;5.30;;
18302;SDS011;9277;37.980;23.748;2022-09-02T11:13:49;10.70;;;4.80;;
18302;SDS011;9277;37.980;23.748;2022-09-02T11:16:19;7.75;;;5.18;;
18302;SDS011;9277;37.980;23.748;2022-09-02T11:18:48;5.30;;;4.47;;
18302;SDS011;9277;37.980;23.748;2022-09-02T11:21:23;8.07;;;5.03;;
18302;SDS011;9277;37.980;23.748;2022-09-02T11:23:52;6.22;;;4.90;;
18302;SDS011;9277;37.980;23.748;2022-09-02T11:26:23;7.25;;;4.90;;
18302;SDS011;9277;37.980;23.748;2022-09-02T11:28:54;8.40;;;5.32;;
18302;SDS011;9277;37.980;23.748;2022-09-02T11:31:23;6.43;;;4.75;;
18302;SDS011;9277;37.980;23.748;2022-09-02T11:33:54;7.85;;;5.03;;
18302;SDS011;9277;37.980;23.748;2022-09-02T11:36:23;6.93;;;4.28;;
18302;SDS011;9277;37.980;23.748;2022-09-02T11:38:51;9.07;;;5.18;;
18302;SDS011;9277;37.980;23.748;2022-09-02T11:44:13;8.80;;;4.88;;
18302;SDS011;9277;37.980;23.748;2022-09-02T11:46:47;10.20;;;4.68;;
18302;SDS011;9277;37.980;23.748;2022-09-02T11:52:02;9.20;;;5.70;;
18302;SDS011;9277;37.980;23.748;2022-09-02T11:54:31;8.05;;;4.63;;
18302;SDS011;9277;37.980;23.748;2022-09-02T11:56:59;8.50;;;4.57;;
18302;SDS011;9277;37.980;23.748;2022-09-02T12:02:10;6.32;;;3.65;;
18302;SDS011;9277;37.980;23.748;2022-09-02T12:04:37;13.48;;;4.78;;
18302;SDS011;9277;37.980;23.748;2022-09-02T12:07:23;10.70;;;4.88;;
18302;SDS011;9277;37.980;23.748;2022-09-02T12:09:51;9.68;;;4.60;;
18302;SDS011;9277;37.980;23.748;2022-09-02T12:15:12;8.35;;;4.40;;
18302;SDS011;9277;37.980;23.748;2022-09-02T12:23:18;8.98;;;4.28;;
18302;SDS011;9277;37.980;23.748;2022-09-02T12:26:00;4.65;;;3.83;;
18302;SDS011;9277;37.980;23.748;2022-09-02T12:28:27;4.55;;;3.85;;
18302;SDS011;9277;37.980;23.748;2022-09-02T12:31:09;9.45;;;3.00;;
18302;SDS011;9277;37.980;23.748;2022-09-02T12:33:39;6.15;;;3.63;;
18302;SDS011;9277;37.980;23.748;2022-09-02T12:36:06;4.55;;;3.72;;
18302;SDS011;9277;37.980;23.748;2022-09-02T12:38:37;6.25;;;3.50;;
18302;SDS011;9277;37.980;23.748;2022-09-02T12:41:17;7.55;;;3.80;;
18302;SDS011;9277;37.980;23.748;2022-09-02T12:43:54;8.90;;;3.85;;
18302;SDS011;9277;37.980;23.748;2022-09-02T12:46:26;6.75;;;3.38;;
18302;SDS011;9277;37.980;23.748;2022-09-02T12:48:57;6.60;;;4.18;;
18302;SDS011;9277;37.980;23.748;2022-09-02T12:54:12;6.05;;;3.70;;
18302;SDS011;9277;37.980;23.748;2022-09-02T12:56:42;7.88;;;3.60;;
18302;SDS011;9277;37.980;23.748;2022-09-02T12:59:18;7.85;;;3.83;;
18302;SDS011;9277;37.980;23.748;2022-09-02T13:01:51;5.82;;;3.70;;
18302;SDS011;9277;37.980;23.748;2022-09-02T13:04:24;4.60;;;3.50;;
18302;SDS011;9277;37.980;23.748;2022-09-02T13:09:51;8.85;;;4.47;;
18302;SDS011;9277;37.980;23.748;2022-09-02T13:15:15;5.85;;;3.72;;
18302;SDS011;9277;37.980;23.748;2022-09-02T13:17:46;3.00;;;2.80;;
18302;SDS011;9277;37.980;23.748;2022-09-02T13:23:07;6.28;;;3.42;;
18302;SDS011;9277;37.980;23.748;2022-09-02T13:25:49;4.45;;;3.47;;
18302;SDS011;9277;37.980;23.748;2022-09-02T13:31:10;5.43;;;3.58;;
18302;SDS011;9277;37.980;23.748;2022-09-02T13:33:39;8.30;;;4.18;;
18302;SDS011;9277;37.980;23.748;2022-09-02T13:36:07;7.93;;;3.95;;
18302;SDS011;9277;37.980;23.748;2022-09-02T13:38:34;9.90;;;4.18;;
18302;SDS011;9277;37.980;23.748;2022-09-02T13:41:02;3.58;;;3.20;;
18302;SDS011;9277;37.980;23.748;2022-09-02T13:43:29;8.50;;;3.42;;
18302;SDS011;9277;37.980;23.748;2022-09-02T13:45:58;3.50;;;2.80;;
18302;SDS011;9277;37.980;23.748;2022-09-02T13:48:27;8.88;;;3.45;;
18302;SDS011;9277;37.980;23.748;2022-09-02T13:50:54;13.02;;;3.80;;
18302;SDS011;9277;37.980;23.748;2022-09-02T13:53:23;9.77;;;3.83;;
18302;SDS011;9277;37.980;23.748;2022-09-02T13:55:52;8.52;;;4.03;;
18302;SDS011;9277;37.980;23.748;2022-09-02T13:58:29;4.57;;;3.80;;
18302;SDS011;9277;37.980;23.748;2022-09-02T14:00:57;5.30;;;3.70;;
18302;SDS011;9277;37.980;23.748;2022-09-02T14:03:44;6.25;;;3.80;;
18302;SDS011;9277;37.980;23.748;2022-09-02T14:06:12;7.97;;;4.78;;
18302;SDS011;9277;37.980;23.748;2022-09-02T14:08:40;10.40;;;4.22;;
18302;SDS011;9277;37.980;23.748;2022-09-02T14:11:07;5.55;;;4.45;;
18302;SDS011;9277;37.980;23.748;2022-09-02T14:13:36;4.65;;;4.05;;
18302;SDS011;9277;37.980;23.748;2022-09-02T14:19:01;7.13;;;4.50;;
18302;SDS011;9277;37.980;23.748;2022-09-02T14:21:28;6.47;;;4.13;;
18302;SDS011;9277;37.980;23.748;2022-09-02T14:23:55;7.38;;;3.88;;
18302;SDS011;9277;37.980;23.748;2022-09-02T14:26:23;6.70;;;4.00;;
18302;SDS011;9277;37.980;23.748;2022-09-02T14:28:52;7.50;;;3.97;;
18302;SDS011;9277;37.980;23.748;2022-09-02T14:31:21;7.10;;;4.07;;
18302;SDS011;9277;37.980;23.748;2022-09-02T14:33:49;6.85;;;4.15;;
18302;SDS011;9277;37.980;23.748;2022-09-02T14:36:30;9.52;;;4.07;;
18302;SDS011;9277;37.980;23.748;2022-09-02T14:39:09;8.23;;;4.35;;
18302;SDS011;9277;37.980;23.748;2022-09-02T14:41:40;5.57;;;3.92;;
18302;SDS011;9277;37.980;23.748;2022-09-02T14:44:10;4.85;;;3.75;;
18302;SDS011;9277;37.980;23.748;2022-09-02T14:46:38;10.15;;;4.10;;
18302;SDS011;9277;37.980;23.748;2022-09-02T14:49:09;5.38;;;4.03;;
18302;SDS011;9277;37.980;23.748;2022-09-02T14:51:37;7.03;;;4.18;;
18302;SDS011;9277;37.980;23.748;2022-09-02T14:54:05;10.13;;;3.80;;
18302;SDS011;9277;37.980;23.748;2022-09-02T14:59:15;10.05;;;3.80;;
18302;SDS011;9277;37.980;23.748;2022-09-02T15:01:42;8.55;;;4.30;;
18302;SDS011;9277;37.980;23.748;2022-09-02T15:04:11;7.10;;;4.05;;
18302;SDS011;9277;37.980;23.748;2022-09-02T15:06:38;7.40;;;4.13;;
18302;SDS011;9277;37.980;23.748;2022-09-02T15:09:05;7.05;;;3.60;;
18302;SDS011;9277;37.980;23.748;2022-09-02T15:11:32;8.32;;;3.80;;
18302;SDS011;9277;37.980;23.748;2022-09-02T15:13:59;9.02;;;3.92;;
18302;SDS011;9277;37.980;23.748;2022-09-02T15:16:28;9.48;;;4.55;;
18302;SDS011;9277;37.980;23.748;2022-09-02T15:18:55;6.28;;;4.22;;
18302;SDS011;9277;37.980;23.748;2022-09-02T15:21:22;7.82;;;4.03;;
18302;SDS011;9277;37.980;23.748;2022-09-02T15:23:49;12.40;;;4.70;;
18302;SDS011;9277;37.980;23.748;2022-09-02T15:26:15;15.30;;;4.80;;
18302;SDS011;9277;37.980;23.748;2022-09-02T15:28:42;10.45;;;4.40;;